<?xml version="1.0" encoding="UTF-8" standalone="no" ?>
<gpx xmlns="http://www.topografix.com/GPX/1/1" xmlns:xsi="http://www.w3.org/2001/XMLSchema-instance" xsi:schemaLocation="http://www.topografix.com/GPX/1/1 http://www.topografix.com/GPX/1/1/gpx.xsd" version="1.1" creator="VisuGPX - https://www.visugpx.com">
  <metadata>
    <name>circuits Cotentin</name>
  </metadata>
  <trk>
    <name><![CDATA[Saint Marcouf 17,1]]></name>
    <extensions>
      <line xmlns="http://www.topografix.com/GPX/gpx_style/0/2">
        <color>1e00ff</color>
        <width>6</width>
      </line>
    </extensions>
    <trkseg>
      <trkpt lat="49.47248" lon="-1.2905">
        <ele>23</ele>
        <time>2022-06-18T09:24:19Z</time>
      </trkpt>
      <trkpt lat="49.47285" lon="-1.28956">
        <ele>19</ele>
        <time>2022-06-18T09:25:54Z</time>
      </trkpt>
      <trkpt lat="49.47304" lon="-1.28952">
        <ele>18</ele>
        <time>2022-06-18T09:26:20Z</time>
      </trkpt>
      <trkpt lat="49.4732" lon="-1.28958">
        <ele>17</ele>
        <time>2022-06-18T09:26:42Z</time>
      </trkpt>
      <trkpt lat="49.47335" lon="-1.28954">
        <ele>16</ele>
        <time>2022-06-18T09:27:02Z</time>
      </trkpt>
      <trkpt lat="49.47357" lon="-1.28922">
        <ele>14</ele>
        <time>2022-06-18T09:27:43Z</time>
      </trkpt>
      <trkpt lat="49.47369" lon="-1.2892">
        <ele>13</ele>
        <time>2022-06-18T09:27:59Z</time>
      </trkpt>
      <trkpt lat="49.47379" lon="-1.28927">
        <ele>12</ele>
        <time>2022-06-18T09:28:13Z</time>
      </trkpt>
      <trkpt lat="49.47414" lon="-1.2896">
        <ele>11</ele>
        <time>2022-06-18T09:29:08Z</time>
      </trkpt>
      <trkpt lat="49.47441" lon="-1.28994">
        <ele>11</ele>
        <time>2022-06-18T09:29:55Z</time>
      </trkpt>
      <trkpt lat="49.47479" lon="-1.2902">
        <ele>11</ele>
        <time>2022-06-18T09:30:50Z</time>
      </trkpt>
      <trkpt lat="49.475" lon="-1.2903">
        <ele>11</ele>
        <time>2022-06-18T09:31:20Z</time>
      </trkpt>
      <trkpt lat="49.47522" lon="-1.29027">
        <ele>11</ele>
        <time>2022-06-18T09:31:49Z</time>
      </trkpt>
      <trkpt lat="49.47568" lon="-1.28999">
        <ele>8</ele>
        <time>2022-06-18T09:32:55Z</time>
      </trkpt>
      <trkpt lat="49.47609" lon="-1.28983">
        <ele>7</ele>
        <time>2022-06-18T09:33:51Z</time>
      </trkpt>
      <trkpt lat="49.47631" lon="-1.28984">
        <ele>7</ele>
        <time>2022-06-18T09:34:21Z</time>
      </trkpt>
      <trkpt lat="49.47651" lon="-1.28982">
        <ele>7</ele>
        <time>2022-06-18T09:34:48Z</time>
      </trkpt>
      <trkpt lat="49.47677" lon="-1.28977">
        <ele>6</ele>
        <time>2022-06-18T09:35:23Z</time>
      </trkpt>
      <trkpt lat="49.47721" lon="-1.28981">
        <ele>5</ele>
        <time>2022-06-18T09:36:21Z</time>
      </trkpt>
      <trkpt lat="49.4774" lon="-1.28987">
        <ele>5</ele>
        <time>2022-06-18T09:36:47Z</time>
      </trkpt>
      <trkpt lat="49.47764" lon="-1.28992">
        <ele>5</ele>
        <time>2022-06-18T09:37:20Z</time>
      </trkpt>
      <trkpt lat="49.47779" lon="-1.28998">
        <ele>5</ele>
        <time>2022-06-18T09:37:40Z</time>
      </trkpt>
      <trkpt lat="49.47798" lon="-1.29002">
        <ele>4</ele>
        <time>2022-06-18T09:38:06Z</time>
      </trkpt>
      <trkpt lat="49.47813" lon="-1.29007">
        <ele>4</ele>
        <time>2022-06-18T09:38:26Z</time>
      </trkpt>
      <trkpt lat="49.47836" lon="-1.29018">
        <ele>4</ele>
        <time>2022-06-18T09:38:58Z</time>
      </trkpt>
      <trkpt lat="49.47873" lon="-1.29025">
        <ele>4</ele>
        <time>2022-06-18T09:39:48Z</time>
      </trkpt>
      <trkpt lat="49.47877" lon="-1.29023">
        <ele>4</ele>
        <time>2022-06-18T09:39:54Z</time>
      </trkpt>
      <trkpt lat="49.47895" lon="-1.29026">
        <ele>4</ele>
        <time>2022-06-18T09:40:18Z</time>
      </trkpt>
      <trkpt lat="49.47972" lon="-1.29077">
        <ele>4</ele>
        <time>2022-06-18T09:42:10Z</time>
      </trkpt>
      <trkpt lat="49.47989" lon="-1.29093">
        <ele>4</ele>
        <time>2022-06-18T09:42:36Z</time>
      </trkpt>
      <trkpt lat="49.48041" lon="-1.2915">
        <ele>5</ele>
        <time>2022-06-18T09:44:02Z</time>
      </trkpt>
      <trkpt lat="49.48044" lon="-1.2916">
        <ele>5</ele>
        <time>2022-06-18T09:44:11Z</time>
      </trkpt>
      <trkpt lat="49.48074" lon="-1.29169">
        <ele>5</ele>
        <time>2022-06-18T09:44:52Z</time>
      </trkpt>
      <trkpt lat="49.48075" lon="-1.29172">
        <ele>5</ele>
        <time>2022-06-18T09:44:55Z</time>
      </trkpt>
      <trkpt lat="49.48072" lon="-1.29192">
        <ele>5</ele>
        <time>2022-06-18T09:45:13Z</time>
      </trkpt>
      <trkpt lat="49.48042" lon="-1.29277">
        <ele>7</ele>
        <time>2022-06-18T09:46:37Z</time>
      </trkpt>
      <trkpt lat="49.47974" lon="-1.29449">
        <ele>20</ele>
        <time>2022-06-18T09:49:31Z</time>
      </trkpt>
      <trkpt lat="49.47937" lon="-1.29527">
        <ele>24</ele>
        <time>2022-06-18T09:50:55Z</time>
      </trkpt>
      <trkpt lat="49.47962" lon="-1.29551">
        <ele>24</ele>
        <time>2022-06-18T09:51:34Z</time>
      </trkpt>
      <trkpt lat="49.47974" lon="-1.29557">
        <ele>24</ele>
        <time>2022-06-18T09:51:51Z</time>
      </trkpt>
      <trkpt lat="49.47993" lon="-1.29573">
        <ele>24</ele>
        <time>2022-06-18T09:52:20Z</time>
      </trkpt>
      <trkpt lat="49.48009" lon="-1.29589">
        <ele>24</ele>
        <time>2022-06-18T09:52:45Z</time>
      </trkpt>
      <trkpt lat="49.4803" lon="-1.29605">
        <ele>23</ele>
        <time>2022-06-18T09:53:17Z</time>
      </trkpt>
      <trkpt lat="49.48077" lon="-1.29637">
        <ele>22</ele>
        <time>2022-06-18T09:54:25Z</time>
      </trkpt>
      <trkpt lat="49.48092" lon="-1.29649">
        <ele>21</ele>
        <time>2022-06-18T09:54:48Z</time>
      </trkpt>
      <trkpt lat="49.48151" lon="-1.29687">
        <ele>15</ele>
        <time>2022-06-18T09:56:13Z</time>
      </trkpt>
      <trkpt lat="49.48238" lon="-1.29735">
        <ele>12</ele>
        <time>2022-06-18T09:58:16Z</time>
      </trkpt>
      <trkpt lat="49.48271" lon="-1.29721">
        <ele>11</ele>
        <time>2022-06-18T09:59:02Z</time>
      </trkpt>
      <trkpt lat="49.48286" lon="-1.29728">
        <ele>11</ele>
        <time>2022-06-18T09:59:23Z</time>
      </trkpt>
      <trkpt lat="49.48312" lon="-1.29756">
        <ele>12</ele>
        <time>2022-06-18T10:00:05Z</time>
      </trkpt>
      <trkpt lat="49.48337" lon="-1.29778">
        <ele>13</ele>
        <time>2022-06-18T10:00:44Z</time>
      </trkpt>
      <trkpt lat="49.48356" lon="-1.29801">
        <ele>14</ele>
        <time>2022-06-18T10:01:16Z</time>
      </trkpt>
      <trkpt lat="49.4838" lon="-1.29821">
        <ele>15</ele>
        <time>2022-06-18T10:01:52Z</time>
      </trkpt>
      <trkpt lat="49.48422" lon="-1.29852">
        <ele>16</ele>
        <time>2022-06-18T10:02:55Z</time>
      </trkpt>
      <trkpt lat="49.48436" lon="-1.29879">
        <ele>17</ele>
        <time>2022-06-18T10:03:25Z</time>
      </trkpt>
      <trkpt lat="49.48452" lon="-1.29905">
        <ele>17</ele>
        <time>2022-06-18T10:03:56Z</time>
      </trkpt>
      <trkpt lat="49.48466" lon="-1.2994">
        <ele>18</ele>
        <time>2022-06-18T10:04:31Z</time>
      </trkpt>
      <trkpt lat="49.48474" lon="-1.29955">
        <ele>18</ele>
        <time>2022-06-18T10:04:48Z</time>
      </trkpt>
      <trkpt lat="49.4849" lon="-1.29981">
        <ele>18</ele>
        <time>2022-06-18T10:05:19Z</time>
      </trkpt>
      <trkpt lat="49.48499" lon="-1.30007">
        <ele>19</ele>
        <time>2022-06-18T10:05:45Z</time>
      </trkpt>
      <trkpt lat="49.48501" lon="-1.30033">
        <ele>20</ele>
        <time>2022-06-18T10:06:07Z</time>
      </trkpt>
      <trkpt lat="49.48545" lon="-1.30097">
        <ele>21</ele>
        <time>2022-06-18T10:07:28Z</time>
      </trkpt>
      <trkpt lat="49.48622" lon="-1.3019">
        <ele>23</ele>
        <time>2022-06-18T10:09:39Z</time>
      </trkpt>
      <trkpt lat="49.48624" lon="-1.30196">
        <ele>23</ele>
        <time>2022-06-18T10:09:45Z</time>
      </trkpt>
      <trkpt lat="49.4862" lon="-1.30219">
        <ele>24</ele>
        <time>2022-06-18T10:10:05Z</time>
      </trkpt>
      <trkpt lat="49.48612" lon="-1.30249">
        <ele>25</ele>
        <time>2022-06-18T10:10:33Z</time>
      </trkpt>
      <trkpt lat="49.48603" lon="-1.30273">
        <ele>25</ele>
        <time>2022-06-18T10:10:57Z</time>
      </trkpt>
      <trkpt lat="49.48579" lon="-1.30322">
        <ele>27</ele>
        <time>2022-06-18T10:11:51Z</time>
      </trkpt>
      <trkpt lat="49.48562" lon="-1.30361">
        <ele>27</ele>
        <time>2022-06-18T10:12:31Z</time>
      </trkpt>
      <trkpt lat="49.48567" lon="-1.30378">
        <ele>27</ele>
        <time>2022-06-18T10:12:47Z</time>
      </trkpt>
      <trkpt lat="49.48584" lon="-1.30398">
        <ele>27</ele>
        <time>2022-06-18T10:13:16Z</time>
      </trkpt>
      <trkpt lat="49.48664" lon="-1.30449">
        <ele>26</ele>
        <time>2022-06-18T10:15:12Z</time>
      </trkpt>
      <trkpt lat="49.48698" lon="-1.3048">
        <ele>26</ele>
        <time>2022-06-18T10:16:04Z</time>
      </trkpt>
      <trkpt lat="49.48754" lon="-1.30545">
        <ele>25</ele>
        <time>2022-06-18T10:17:38Z</time>
      </trkpt>
      <trkpt lat="49.48773" lon="-1.30579">
        <ele>26</ele>
        <time>2022-06-18T10:18:17Z</time>
      </trkpt>
      <trkpt lat="49.4879" lon="-1.30629">
        <ele>26</ele>
        <time>2022-06-18T10:19:06Z</time>
      </trkpt>
      <trkpt lat="49.48815" lon="-1.30715">
        <ele>26</ele>
        <time>2022-06-18T10:20:27Z</time>
      </trkpt>
      <trkpt lat="49.48841" lon="-1.30791">
        <ele>27</ele>
        <time>2022-06-18T10:21:42Z</time>
      </trkpt>
      <trkpt lat="49.48859" lon="-1.30853">
        <ele>27</ele>
        <time>2022-06-18T10:22:41Z</time>
      </trkpt>
      <trkpt lat="49.48876" lon="-1.30968">
        <ele>26</ele>
        <time>2022-06-18T10:24:23Z</time>
      </trkpt>
      <trkpt lat="49.48884" lon="-1.31007">
        <ele>26</ele>
        <time>2022-06-18T10:24:58Z</time>
      </trkpt>
      <trkpt lat="49.489" lon="-1.31069">
        <ele>25</ele>
        <time>2022-06-18T10:25:56Z</time>
      </trkpt>
      <trkpt lat="49.48904" lon="-1.31076">
        <ele>25</ele>
        <time>2022-06-18T10:26:04Z</time>
      </trkpt>
      <trkpt lat="49.48925" lon="-1.31102">
        <ele>25</ele>
        <time>2022-06-18T10:26:40Z</time>
      </trkpt>
      <trkpt lat="49.48941" lon="-1.31119">
        <ele>26</ele>
        <time>2022-06-18T10:27:06Z</time>
      </trkpt>
      <trkpt lat="49.48959" lon="-1.31142">
        <ele>26</ele>
        <time>2022-06-18T10:27:37Z</time>
      </trkpt>
      <trkpt lat="49.48965" lon="-1.31176">
        <ele>26</ele>
        <time>2022-06-18T10:28:08Z</time>
      </trkpt>
      <trkpt lat="49.48961" lon="-1.31204">
        <ele>26</ele>
        <time>2022-06-18T10:28:33Z</time>
      </trkpt>
      <trkpt lat="49.48939" lon="-1.31318">
        <ele>27</ele>
        <time>2022-06-18T10:30:16Z</time>
      </trkpt>
      <trkpt lat="49.4896" lon="-1.31334">
        <ele>26</ele>
        <time>2022-06-18T10:30:47Z</time>
      </trkpt>
      <trkpt lat="49.48981" lon="-1.31354">
        <ele>26</ele>
        <time>2022-06-18T10:31:20Z</time>
      </trkpt>
      <trkpt lat="49.48988" lon="-1.31364">
        <ele>26</ele>
        <time>2022-06-18T10:31:33Z</time>
      </trkpt>
      <trkpt lat="49.49003" lon="-1.31402">
        <ele>27</ele>
        <time>2022-06-18T10:32:11Z</time>
      </trkpt>
      <trkpt lat="49.49006" lon="-1.31405">
        <ele>27</ele>
        <time>2022-06-18T10:32:16Z</time>
      </trkpt>
      <trkpt lat="49.4902" lon="-1.31504">
        <ele>26</ele>
        <time>2022-06-18T10:33:44Z</time>
      </trkpt>
      <trkpt lat="49.49032" lon="-1.31533">
        <ele>27</ele>
        <time>2022-06-18T10:34:14Z</time>
      </trkpt>
      <trkpt lat="49.49056" lon="-1.31609">
        <ele>28</ele>
        <time>2022-06-18T10:35:27Z</time>
      </trkpt>
      <trkpt lat="49.49066" lon="-1.31635">
        <ele>28</ele>
        <time>2022-06-18T10:35:53Z</time>
      </trkpt>
      <trkpt lat="49.49079" lon="-1.3166">
        <ele>29</ele>
        <time>2022-06-18T10:36:21Z</time>
      </trkpt>
      <trkpt lat="49.49093" lon="-1.31696">
        <ele>29</ele>
        <time>2022-06-18T10:36:57Z</time>
      </trkpt>
      <trkpt lat="49.49096" lon="-1.3172">
        <ele>29</ele>
        <time>2022-06-18T10:37:19Z</time>
      </trkpt>
      <trkpt lat="49.49103" lon="-1.31736">
        <ele>28</ele>
        <time>2022-06-18T10:37:35Z</time>
      </trkpt>
      <trkpt lat="49.49103" lon="-1.31743">
        <ele>28</ele>
        <time>2022-06-18T10:37:41Z</time>
      </trkpt>
      <trkpt lat="49.49091" lon="-1.31756">
        <ele>28</ele>
        <time>2022-06-18T10:38:01Z</time>
      </trkpt>
      <trkpt lat="49.49069" lon="-1.3177">
        <ele>28</ele>
        <time>2022-06-18T10:38:33Z</time>
      </trkpt>
      <trkpt lat="49.49065" lon="-1.31776">
        <ele>28</ele>
        <time>2022-06-18T10:38:40Z</time>
      </trkpt>
      <trkpt lat="49.49069" lon="-1.31797">
        <ele>28</ele>
        <time>2022-06-18T10:38:59Z</time>
      </trkpt>
      <trkpt lat="49.49096" lon="-1.3184">
        <ele>28</ele>
        <time>2022-06-18T10:39:51Z</time>
      </trkpt>
      <trkpt lat="49.49106" lon="-1.31863">
        <ele>28</ele>
        <time>2022-06-18T10:40:15Z</time>
      </trkpt>
      <trkpt lat="49.49123" lon="-1.3189">
        <ele>28</ele>
        <time>2022-06-18T10:40:48Z</time>
      </trkpt>
      <trkpt lat="49.492" lon="-1.32036">
        <ele>28</ele>
        <time>2022-06-18T10:43:31Z</time>
      </trkpt>
      <trkpt lat="49.49218" lon="-1.32062">
        <ele>28</ele>
        <time>2022-06-18T10:44:04Z</time>
      </trkpt>
      <trkpt lat="49.49222" lon="-1.3209">
        <ele>28</ele>
        <time>2022-06-18T10:44:28Z</time>
      </trkpt>
      <trkpt lat="49.49231" lon="-1.32126">
        <ele>29</ele>
        <time>2022-06-18T10:45:02Z</time>
      </trkpt>
      <trkpt lat="49.49239" lon="-1.3218">
        <ele>30</ele>
        <time>2022-06-18T10:45:50Z</time>
      </trkpt>
      <trkpt lat="49.49246" lon="-1.32206">
        <ele>30</ele>
        <time>2022-06-18T10:46:14Z</time>
      </trkpt>
      <trkpt lat="49.49283" lon="-1.32334">
        <ele>32</ele>
        <time>2022-06-18T10:48:16Z</time>
      </trkpt>
      <trkpt lat="49.49295" lon="-1.32363">
        <ele>33</ele>
        <time>2022-06-18T10:48:45Z</time>
      </trkpt>
      <trkpt lat="49.49322" lon="-1.3245">
        <ele>34</ele>
        <time>2022-06-18T10:50:09Z</time>
      </trkpt>
      <trkpt lat="49.49336" lon="-1.32487">
        <ele>35</ele>
        <time>2022-06-18T10:50:46Z</time>
      </trkpt>
      <trkpt lat="49.49347" lon="-1.32524">
        <ele>36</ele>
        <time>2022-06-18T10:51:21Z</time>
      </trkpt>
      <trkpt lat="49.49357" lon="-1.32549">
        <ele>36</ele>
        <time>2022-06-18T10:51:47Z</time>
      </trkpt>
      <trkpt lat="49.49363" lon="-1.32569">
        <ele>36</ele>
        <time>2022-06-18T10:52:06Z</time>
      </trkpt>
      <trkpt lat="49.4937" lon="-1.32601">
        <ele>36</ele>
        <time>2022-06-18T10:52:35Z</time>
      </trkpt>
      <trkpt lat="49.49378" lon="-1.32626">
        <ele>37</ele>
        <time>2022-06-18T10:52:59Z</time>
      </trkpt>
      <trkpt lat="49.49385" lon="-1.32655">
        <ele>37</ele>
        <time>2022-06-18T10:53:26Z</time>
      </trkpt>
      <trkpt lat="49.49399" lon="-1.32727">
        <ele>38</ele>
        <time>2022-06-18T10:54:31Z</time>
      </trkpt>
      <trkpt lat="49.49426" lon="-1.32734">
        <ele>39</ele>
        <time>2022-06-18T10:55:08Z</time>
      </trkpt>
      <trkpt lat="49.49439" lon="-1.32796">
        <ele>39</ele>
        <time>2022-06-18T10:56:04Z</time>
      </trkpt>
      <trkpt lat="49.49451" lon="-1.32881">
        <ele>39</ele>
        <time>2022-06-18T10:57:20Z</time>
      </trkpt>
      <trkpt lat="49.49466" lon="-1.32914">
        <ele>38</ele>
        <time>2022-06-18T10:57:55Z</time>
      </trkpt>
      <trkpt lat="49.49471" lon="-1.32953">
        <ele>37</ele>
        <time>2022-06-18T10:58:29Z</time>
      </trkpt>
      <trkpt lat="49.49482" lon="-1.33006">
        <ele>37</ele>
        <time>2022-06-18T10:59:17Z</time>
      </trkpt>
      <trkpt lat="49.49483" lon="-1.33047">
        <ele>36</ele>
        <time>2022-06-18T10:59:53Z</time>
      </trkpt>
      <trkpt lat="49.4948" lon="-1.33083">
        <ele>35</ele>
        <time>2022-06-18T11:00:24Z</time>
      </trkpt>
      <trkpt lat="49.49475" lon="-1.33114">
        <ele>34</ele>
        <time>2022-06-18T11:00:52Z</time>
      </trkpt>
      <trkpt lat="49.49458" lon="-1.33133">
        <ele>33</ele>
        <time>2022-06-18T11:01:20Z</time>
      </trkpt>
      <trkpt lat="49.4944" lon="-1.33137">
        <ele>33</ele>
        <time>2022-06-18T11:01:44Z</time>
      </trkpt>
      <trkpt lat="49.49427" lon="-1.33138">
        <ele>33</ele>
        <time>2022-06-18T11:02:02Z</time>
      </trkpt>
      <trkpt lat="49.49388" lon="-1.33149">
        <ele>32</ele>
        <time>2022-06-18T11:02:55Z</time>
      </trkpt>
      <trkpt lat="49.49367" lon="-1.33156">
        <ele>32</ele>
        <time>2022-06-18T11:03:23Z</time>
      </trkpt>
      <trkpt lat="49.49317" lon="-1.33178">
        <ele>30</ele>
        <time>2022-06-18T11:04:33Z</time>
      </trkpt>
      <trkpt lat="49.49254" lon="-1.33203">
        <ele>30</ele>
        <time>2022-06-18T11:06:00Z</time>
      </trkpt>
      <trkpt lat="49.49229" lon="-1.3321">
        <ele>30</ele>
        <time>2022-06-18T11:06:33Z</time>
      </trkpt>
      <trkpt lat="49.49203" lon="-1.33215">
        <ele>30</ele>
        <time>2022-06-18T11:07:08Z</time>
      </trkpt>
      <trkpt lat="49.49179" lon="-1.33219">
        <ele>30</ele>
        <time>2022-06-18T11:07:41Z</time>
      </trkpt>
      <trkpt lat="49.49152" lon="-1.33221">
        <ele>30</ele>
        <time>2022-06-18T11:08:17Z</time>
      </trkpt>
      <trkpt lat="49.49077" lon="-1.33206">
        <ele>29</ele>
        <time>2022-06-18T11:09:58Z</time>
      </trkpt>
      <trkpt lat="49.49073" lon="-1.33207">
        <ele>29</ele>
        <time>2022-06-18T11:10:03Z</time>
      </trkpt>
      <trkpt lat="49.4906" lon="-1.33241">
        <ele>28</ele>
        <time>2022-06-18T11:10:37Z</time>
      </trkpt>
      <trkpt lat="49.49045" lon="-1.33256">
        <ele>28</ele>
        <time>2022-06-18T11:11:01Z</time>
      </trkpt>
      <trkpt lat="49.49033" lon="-1.33279">
        <ele>27</ele>
        <time>2022-06-18T11:11:27Z</time>
      </trkpt>
      <trkpt lat="49.49025" lon="-1.33317">
        <ele>26</ele>
        <time>2022-06-18T11:12:01Z</time>
      </trkpt>
      <trkpt lat="49.48987" lon="-1.33307">
        <ele>25</ele>
        <time>2022-06-18T11:12:53Z</time>
      </trkpt>
      <trkpt lat="49.48998" lon="-1.33228">
        <ele>26</ele>
        <time>2022-06-18T11:14:03Z</time>
      </trkpt>
      <trkpt lat="49.48873" lon="-1.33162">
        <ele>22</ele>
        <time>2022-06-18T11:16:59Z</time>
      </trkpt>
      <trkpt lat="49.48852" lon="-1.33148">
        <ele>21</ele>
        <time>2022-06-18T11:17:30Z</time>
      </trkpt>
      <trkpt lat="49.48847" lon="-1.33143">
        <ele>21</ele>
        <time>2022-06-18T11:17:38Z</time>
      </trkpt>
      <trkpt lat="49.48755" lon="-1.33091">
        <ele>22</ele>
        <time>2022-06-18T11:19:48Z</time>
      </trkpt>
      <trkpt lat="49.48722" lon="-1.33138">
        <ele>25</ele>
        <time>2022-06-18T11:20:48Z</time>
      </trkpt>
      <trkpt lat="49.48683" lon="-1.33175">
        <ele>27</ele>
        <time>2022-06-18T11:21:50Z</time>
      </trkpt>
      <trkpt lat="49.48663" lon="-1.3319">
        <ele>29</ele>
        <time>2022-06-18T11:22:19Z</time>
      </trkpt>
      <trkpt lat="49.48574" lon="-1.33244">
        <ele>30</ele>
        <time>2022-06-18T11:24:27Z</time>
      </trkpt>
      <trkpt lat="49.48555" lon="-1.33263">
        <ele>30</ele>
        <time>2022-06-18T11:24:57Z</time>
      </trkpt>
      <trkpt lat="49.48532" lon="-1.33278">
        <ele>30</ele>
        <time>2022-06-18T11:25:30Z</time>
      </trkpt>
      <trkpt lat="49.48523" lon="-1.33282">
        <ele>30</ele>
        <time>2022-06-18T11:25:43Z</time>
      </trkpt>
      <trkpt lat="49.48408" lon="-1.33352">
        <ele>29</ele>
        <time>2022-06-18T11:28:28Z</time>
      </trkpt>
      <trkpt lat="49.48387" lon="-1.3337">
        <ele>28</ele>
        <time>2022-06-18T11:29:00Z</time>
      </trkpt>
      <trkpt lat="49.48248" lon="-1.33506">
        <ele>25</ele>
        <time>2022-06-18T11:32:40Z</time>
      </trkpt>
      <trkpt lat="49.48182" lon="-1.33583">
        <ele>24</ele>
        <time>2022-06-18T11:34:30Z</time>
      </trkpt>
      <trkpt lat="49.48172" lon="-1.33601">
        <ele>23</ele>
        <time>2022-06-18T11:34:51Z</time>
      </trkpt>
      <trkpt lat="49.48154" lon="-1.33625">
        <ele>23</ele>
        <time>2022-06-18T11:35:23Z</time>
      </trkpt>
      <trkpt lat="49.48144" lon="-1.33643">
        <ele>23</ele>
        <time>2022-06-18T11:35:43Z</time>
      </trkpt>
      <trkpt lat="49.48078" lon="-1.33788">
        <ele>22</ele>
        <time>2022-06-18T11:38:17Z</time>
      </trkpt>
      <trkpt lat="49.48052" lon="-1.3383">
        <ele>23</ele>
        <time>2022-06-18T11:39:07Z</time>
      </trkpt>
      <trkpt lat="49.48028" lon="-1.33833">
        <ele>22</ele>
        <time>2022-06-18T11:39:39Z</time>
      </trkpt>
      <trkpt lat="49.48012" lon="-1.33848">
        <ele>22</ele>
        <time>2022-06-18T11:40:04Z</time>
      </trkpt>
      <trkpt lat="49.4798" lon="-1.33894">
        <ele>21</ele>
        <time>2022-06-18T11:41:03Z</time>
      </trkpt>
      <trkpt lat="49.47924" lon="-1.34022">
        <ele>17</ele>
        <time>2022-06-18T11:43:16Z</time>
      </trkpt>
      <trkpt lat="49.47885" lon="-1.34093">
        <ele>18</ele>
        <time>2022-06-18T11:44:37Z</time>
      </trkpt>
      <trkpt lat="49.4788" lon="-1.34153">
        <ele>19</ele>
        <time>2022-06-18T11:45:29Z</time>
      </trkpt>
      <trkpt lat="49.47869" lon="-1.34176">
        <ele>19</ele>
        <time>2022-06-18T11:45:54Z</time>
      </trkpt>
      <trkpt lat="49.47862" lon="-1.34155">
        <ele>19</ele>
        <time>2022-06-18T11:46:15Z</time>
      </trkpt>
      <trkpt lat="49.47824" lon="-1.34115">
        <ele>20</ele>
        <time>2022-06-18T11:47:16Z</time>
      </trkpt>
      <trkpt lat="49.47824" lon="-1.34112">
        <ele>20</ele>
        <time>2022-06-18T11:47:19Z</time>
      </trkpt>
      <trkpt lat="49.47814" lon="-1.3409">
        <ele>21</ele>
        <time>2022-06-18T11:47:42Z</time>
      </trkpt>
      <trkpt lat="49.47767" lon="-1.33961">
        <ele>24</ele>
        <time>2022-06-18T11:49:50Z</time>
      </trkpt>
      <trkpt lat="49.47757" lon="-1.33928">
        <ele>25</ele>
        <time>2022-06-18T11:50:22Z</time>
      </trkpt>
      <trkpt lat="49.47747" lon="-1.33884">
        <ele>25</ele>
        <time>2022-06-18T11:51:02Z</time>
      </trkpt>
      <trkpt lat="49.47749" lon="-1.33839">
        <ele>25</ele>
        <time>2022-06-18T11:51:41Z</time>
      </trkpt>
      <trkpt lat="49.4776" lon="-1.3372">
        <ele>26</ele>
        <time>2022-06-18T11:53:26Z</time>
      </trkpt>
      <trkpt lat="49.47761" lon="-1.33672">
        <ele>26</ele>
        <time>2022-06-18T11:54:07Z</time>
      </trkpt>
      <trkpt lat="49.4776" lon="-1.33635">
        <ele>27</ele>
        <time>2022-06-18T11:54:39Z</time>
      </trkpt>
      <trkpt lat="49.47754" lon="-1.33543">
        <ele>28</ele>
        <time>2022-06-18T11:55:59Z</time>
      </trkpt>
      <trkpt lat="49.47741" lon="-1.33396">
        <ele>28</ele>
        <time>2022-06-18T11:58:08Z</time>
      </trkpt>
      <trkpt lat="49.4774" lon="-1.33371">
        <ele>28</ele>
        <time>2022-06-18T11:58:30Z</time>
      </trkpt>
      <trkpt lat="49.47728" lon="-1.33302">
        <ele>27</ele>
        <time>2022-06-18T11:59:32Z</time>
      </trkpt>
      <trkpt lat="49.47719" lon="-1.33277">
        <ele>27</ele>
        <time>2022-06-18T11:59:57Z</time>
      </trkpt>
      <trkpt lat="49.47684" lon="-1.33198">
        <ele>27</ele>
        <time>2022-06-18T12:01:19Z</time>
      </trkpt>
      <trkpt lat="49.47673" lon="-1.33165">
        <ele>27</ele>
        <time>2022-06-18T12:01:52Z</time>
      </trkpt>
      <trkpt lat="49.4766" lon="-1.33139">
        <ele>27</ele>
        <time>2022-06-18T12:02:20Z</time>
      </trkpt>
      <trkpt lat="49.47635" lon="-1.33123">
        <ele>27</ele>
        <time>2022-06-18T12:02:56Z</time>
      </trkpt>
      <trkpt lat="49.47608" lon="-1.33112">
        <ele>27</ele>
        <time>2022-06-18T12:03:33Z</time>
      </trkpt>
      <trkpt lat="49.47588" lon="-1.33101">
        <ele>27</ele>
        <time>2022-06-18T12:04:02Z</time>
      </trkpt>
      <trkpt lat="49.47568" lon="-1.33096">
        <ele>27</ele>
        <time>2022-06-18T12:04:29Z</time>
      </trkpt>
      <trkpt lat="49.4753" lon="-1.33075">
        <ele>26</ele>
        <time>2022-06-18T12:05:23Z</time>
      </trkpt>
      <trkpt lat="49.47473" lon="-1.33048">
        <ele>25</ele>
        <time>2022-06-18T12:06:42Z</time>
      </trkpt>
      <trkpt lat="49.47446" lon="-1.33033">
        <ele>25</ele>
        <time>2022-06-18T12:07:21Z</time>
      </trkpt>
      <trkpt lat="49.47398" lon="-1.32998">
        <ele>24</ele>
        <time>2022-06-18T12:08:31Z</time>
      </trkpt>
      <trkpt lat="49.47374" lon="-1.32976">
        <ele>23</ele>
        <time>2022-06-18T12:09:09Z</time>
      </trkpt>
      <trkpt lat="49.47368" lon="-1.32966">
        <ele>23</ele>
        <time>2022-06-18T12:09:21Z</time>
      </trkpt>
      <trkpt lat="49.47363" lon="-1.32905">
        <ele>22</ele>
        <time>2022-06-18T12:10:14Z</time>
      </trkpt>
      <trkpt lat="49.47364" lon="-1.32857">
        <ele>22</ele>
        <time>2022-06-18T12:10:56Z</time>
      </trkpt>
      <trkpt lat="49.47358" lon="-1.32678">
        <ele>22</ele>
        <time>2022-06-18T12:13:31Z</time>
      </trkpt>
      <trkpt lat="49.47359" lon="-1.32612">
        <ele>23</ele>
        <time>2022-06-18T12:14:28Z</time>
      </trkpt>
      <trkpt lat="49.47356" lon="-1.32526">
        <ele>23</ele>
        <time>2022-06-18T12:15:43Z</time>
      </trkpt>
      <trkpt lat="49.47348" lon="-1.32427">
        <ele>23</ele>
        <time>2022-06-18T12:17:09Z</time>
      </trkpt>
      <trkpt lat="49.47342" lon="-1.32375">
        <ele>22</ele>
        <time>2022-06-18T12:17:55Z</time>
      </trkpt>
      <trkpt lat="49.47341" lon="-1.32338">
        <ele>22</ele>
        <time>2022-06-18T12:18:27Z</time>
      </trkpt>
      <trkpt lat="49.47337" lon="-1.32308">
        <ele>22</ele>
        <time>2022-06-18T12:18:54Z</time>
      </trkpt>
      <trkpt lat="49.47338" lon="-1.3228">
        <ele>22</ele>
        <time>2022-06-18T12:19:18Z</time>
      </trkpt>
      <trkpt lat="49.47332" lon="-1.32224">
        <ele>22</ele>
        <time>2022-06-18T12:20:07Z</time>
      </trkpt>
      <trkpt lat="49.4733" lon="-1.32189">
        <ele>21</ele>
        <time>2022-06-18T12:20:38Z</time>
      </trkpt>
      <trkpt lat="49.47308" lon="-1.31996">
        <ele>21</ele>
        <time>2022-06-18T12:23:28Z</time>
      </trkpt>
      <trkpt lat="49.47303" lon="-1.31936">
        <ele>21</ele>
        <time>2022-06-18T12:24:20Z</time>
      </trkpt>
      <trkpt lat="49.4729" lon="-1.31836">
        <ele>22</ele>
        <time>2022-06-18T12:25:49Z</time>
      </trkpt>
      <trkpt lat="49.47283" lon="-1.31797">
        <ele>21</ele>
        <time>2022-06-18T12:26:24Z</time>
      </trkpt>
      <trkpt lat="49.47275" lon="-1.31772">
        <ele>21</ele>
        <time>2022-06-18T12:26:48Z</time>
      </trkpt>
      <trkpt lat="49.47261" lon="-1.31708">
        <ele>20</ele>
        <time>2022-06-18T12:27:46Z</time>
      </trkpt>
      <trkpt lat="49.47239" lon="-1.31634">
        <ele>20</ele>
        <time>2022-06-18T12:28:57Z</time>
      </trkpt>
      <trkpt lat="49.47225" lon="-1.31578">
        <ele>19</ele>
        <time>2022-06-18T12:29:49Z</time>
      </trkpt>
      <trkpt lat="49.4722" lon="-1.31535">
        <ele>18</ele>
        <time>2022-06-18T12:30:27Z</time>
      </trkpt>
      <trkpt lat="49.47219" lon="-1.31495">
        <ele>17</ele>
        <time>2022-06-18T12:31:02Z</time>
      </trkpt>
      <trkpt lat="49.4722" lon="-1.31476">
        <ele>17</ele>
        <time>2022-06-18T12:31:18Z</time>
      </trkpt>
      <trkpt lat="49.47229" lon="-1.31441">
        <ele>17</ele>
        <time>2022-06-18T12:31:51Z</time>
      </trkpt>
      <trkpt lat="49.47254" lon="-1.31404">
        <ele>17</ele>
        <time>2022-06-18T12:32:37Z</time>
      </trkpt>
      <trkpt lat="49.47262" lon="-1.31374">
        <ele>17</ele>
        <time>2022-06-18T12:33:05Z</time>
      </trkpt>
      <trkpt lat="49.47263" lon="-1.31347">
        <ele>16</ele>
        <time>2022-06-18T12:33:29Z</time>
      </trkpt>
      <trkpt lat="49.47215" lon="-1.31169">
        <ele>18</ele>
        <time>2022-06-18T12:36:16Z</time>
      </trkpt>
      <trkpt lat="49.47206" lon="-1.31127">
        <ele>18</ele>
        <time>2022-06-18T12:36:54Z</time>
      </trkpt>
      <trkpt lat="49.47202" lon="-1.31052">
        <ele>18</ele>
        <time>2022-06-18T12:37:59Z</time>
      </trkpt>
      <trkpt lat="49.47201" lon="-1.30939">
        <ele>19</ele>
        <time>2022-06-18T12:39:37Z</time>
      </trkpt>
      <trkpt lat="49.47198" lon="-1.30906">
        <ele>19</ele>
        <time>2022-06-18T12:40:06Z</time>
      </trkpt>
      <trkpt lat="49.47198" lon="-1.30844">
        <ele>19</ele>
        <time>2022-06-18T12:41:00Z</time>
      </trkpt>
      <trkpt lat="49.47196" lon="-1.30828">
        <ele>19</ele>
        <time>2022-06-18T12:41:14Z</time>
      </trkpt>
      <trkpt lat="49.47175" lon="-1.30815">
        <ele>18</ele>
        <time>2022-06-18T12:41:44Z</time>
      </trkpt>
      <trkpt lat="49.47155" lon="-1.30806">
        <ele>18</ele>
        <time>2022-06-18T12:42:12Z</time>
      </trkpt>
      <trkpt lat="49.47066" lon="-1.30759">
        <ele>20</ele>
        <time>2022-06-18T12:44:18Z</time>
      </trkpt>
      <trkpt lat="49.47049" lon="-1.30761">
        <ele>20</ele>
        <time>2022-06-18T12:44:41Z</time>
      </trkpt>
      <trkpt lat="49.47023" lon="-1.30774">
        <ele>20</ele>
        <time>2022-06-18T12:45:17Z</time>
      </trkpt>
      <trkpt lat="49.46997" lon="-1.30777">
        <ele>20</ele>
        <time>2022-06-18T12:45:52Z</time>
      </trkpt>
      <trkpt lat="49.4697" lon="-1.30778">
        <ele>20</ele>
        <time>2022-06-18T12:46:28Z</time>
      </trkpt>
      <trkpt lat="49.46868" lon="-1.30773">
        <ele>22</ele>
        <time>2022-06-18T12:48:44Z</time>
      </trkpt>
      <trkpt lat="49.46822" lon="-1.30767">
        <ele>23</ele>
        <time>2022-06-18T12:49:46Z</time>
      </trkpt>
      <trkpt lat="49.46796" lon="-1.3076">
        <ele>23</ele>
        <time>2022-06-18T12:50:21Z</time>
      </trkpt>
      <trkpt lat="49.46767" lon="-1.30744">
        <ele>23</ele>
        <time>2022-06-18T12:51:02Z</time>
      </trkpt>
      <trkpt lat="49.46618" lon="-1.30617">
        <ele>26</ele>
        <time>2022-06-18T12:54:49Z</time>
      </trkpt>
      <trkpt lat="49.46484" lon="-1.30491">
        <ele>28</ele>
        <time>2022-06-18T12:58:19Z</time>
      </trkpt>
      <trkpt lat="49.46357" lon="-1.30339">
        <ele>31</ele>
        <time>2022-06-18T13:01:54Z</time>
      </trkpt>
      <trkpt lat="49.46348" lon="-1.30332">
        <ele>31</ele>
        <time>2022-06-18T13:02:07Z</time>
      </trkpt>
      <trkpt lat="49.46344" lon="-1.30324">
        <ele>31</ele>
        <time>2022-06-18T13:02:16Z</time>
      </trkpt>
      <trkpt lat="49.46321" lon="-1.30308">
        <ele>31</ele>
        <time>2022-06-18T13:02:49Z</time>
      </trkpt>
      <trkpt lat="49.4615" lon="-1.30101">
        <ele>30</ele>
        <time>2022-06-18T13:07:40Z</time>
      </trkpt>
      <trkpt lat="49.46035" lon="-1.29969">
        <ele>30</ele>
        <time>2022-06-18T13:10:51Z</time>
      </trkpt>
      <trkpt lat="49.45975" lon="-1.29873">
        <ele>30</ele>
        <time>2022-06-18T13:12:47Z</time>
      </trkpt>
      <trkpt lat="49.45941" lon="-1.29808">
        <ele>30</ele>
        <time>2022-06-18T13:13:59Z</time>
      </trkpt>
      <trkpt lat="49.45921" lon="-1.29775">
        <ele>29</ele>
        <time>2022-06-18T13:14:38Z</time>
      </trkpt>
      <trkpt lat="49.459" lon="-1.29733">
        <ele>29</ele>
        <time>2022-06-18T13:15:24Z</time>
      </trkpt>
      <trkpt lat="49.45882" lon="-1.29688">
        <ele>28</ele>
        <time>2022-06-18T13:16:10Z</time>
      </trkpt>
      <trkpt lat="49.45852" lon="-1.29582">
        <ele>28</ele>
        <time>2022-06-18T13:17:50Z</time>
      </trkpt>
      <trkpt lat="49.45795" lon="-1.29394">
        <ele>29</ele>
        <time>2022-06-18T13:20:50Z</time>
      </trkpt>
      <trkpt lat="49.45785" lon="-1.29355">
        <ele>29</ele>
        <time>2022-06-18T13:21:27Z</time>
      </trkpt>
      <trkpt lat="49.45766" lon="-1.29293">
        <ele>29</ele>
        <time>2022-06-18T13:22:26Z</time>
      </trkpt>
      <trkpt lat="49.45757" lon="-1.29259">
        <ele>28</ele>
        <time>2022-06-18T13:22:58Z</time>
      </trkpt>
      <trkpt lat="49.45757" lon="-1.29251">
        <ele>28</ele>
        <time>2022-06-18T13:23:05Z</time>
      </trkpt>
      <trkpt lat="49.45748" lon="-1.29221">
        <ele>28</ele>
        <time>2022-06-18T13:23:34Z</time>
      </trkpt>
      <trkpt lat="49.45706" lon="-1.29139">
        <ele>28</ele>
        <time>2022-06-18T13:25:04Z</time>
      </trkpt>
      <trkpt lat="49.45703" lon="-1.29128">
        <ele>28</ele>
        <time>2022-06-18T13:25:14Z</time>
      </trkpt>
      <trkpt lat="49.45703" lon="-1.29125">
        <ele>28</ele>
        <time>2022-06-18T13:25:17Z</time>
      </trkpt>
      <trkpt lat="49.45723" lon="-1.29089">
        <ele>28</ele>
        <time>2022-06-18T13:25:58Z</time>
      </trkpt>
      <trkpt lat="49.45766" lon="-1.29">
        <ele>28</ele>
        <time>2022-06-18T13:27:34Z</time>
      </trkpt>
      <trkpt lat="49.45802" lon="-1.28944">
        <ele>28</ele>
        <time>2022-06-18T13:28:43Z</time>
      </trkpt>
      <trkpt lat="49.45827" lon="-1.28886">
        <ele>27</ele>
        <time>2022-06-18T13:29:43Z</time>
      </trkpt>
      <trkpt lat="49.45929" lon="-1.28725">
        <ele>26</ele>
        <time>2022-06-18T13:32:58Z</time>
      </trkpt>
      <trkpt lat="49.46007" lon="-1.28606">
        <ele>24</ele>
        <time>2022-06-18T13:35:25Z</time>
      </trkpt>
      <trkpt lat="49.46026" lon="-1.28573">
        <ele>24</ele>
        <time>2022-06-18T13:36:03Z</time>
      </trkpt>
      <trkpt lat="49.4603" lon="-1.28571">
        <ele>24</ele>
        <time>2022-06-18T13:36:08Z</time>
      </trkpt>
      <trkpt lat="49.4604" lon="-1.28586">
        <ele>24</ele>
        <time>2022-06-18T13:36:27Z</time>
      </trkpt>
      <trkpt lat="49.4606" lon="-1.28627">
        <ele>23</ele>
        <time>2022-06-18T13:37:12Z</time>
      </trkpt>
      <trkpt lat="49.46085" lon="-1.28672">
        <ele>23</ele>
        <time>2022-06-18T13:38:03Z</time>
      </trkpt>
      <trkpt lat="49.4611" lon="-1.28704">
        <ele>21</ele>
        <time>2022-06-18T13:38:46Z</time>
      </trkpt>
      <trkpt lat="49.46134" lon="-1.28728">
        <ele>20</ele>
        <time>2022-06-18T13:39:24Z</time>
      </trkpt>
      <trkpt lat="49.46173" lon="-1.28793">
        <ele>19</ele>
        <time>2022-06-18T13:40:41Z</time>
      </trkpt>
      <trkpt lat="49.46192" lon="-1.28816">
        <ele>19</ele>
        <time>2022-06-18T13:41:13Z</time>
      </trkpt>
      <trkpt lat="49.46222" lon="-1.28863">
        <ele>19</ele>
        <time>2022-06-18T13:42:11Z</time>
      </trkpt>
      <trkpt lat="49.46238" lon="-1.2889">
        <ele>19</ele>
        <time>2022-06-18T13:42:42Z</time>
      </trkpt>
      <trkpt lat="49.46238" lon="-1.28894">
        <ele>19</ele>
        <time>2022-06-18T13:42:46Z</time>
      </trkpt>
      <trkpt lat="49.46243" lon="-1.28904">
        <ele>20</ele>
        <time>2022-06-18T13:42:57Z</time>
      </trkpt>
      <trkpt lat="49.46258" lon="-1.28929">
        <ele>19</ele>
        <time>2022-06-18T13:43:26Z</time>
      </trkpt>
      <trkpt lat="49.46266" lon="-1.28938">
        <ele>19</ele>
        <time>2022-06-18T13:43:39Z</time>
      </trkpt>
      <trkpt lat="49.46281" lon="-1.28934">
        <ele>18</ele>
        <time>2022-06-18T13:44:00Z</time>
      </trkpt>
      <trkpt lat="49.46303" lon="-1.28903">
        <ele>17</ele>
        <time>2022-06-18T13:44:40Z</time>
      </trkpt>
      <trkpt lat="49.46335" lon="-1.28849">
        <ele>15</ele>
        <time>2022-06-18T13:45:43Z</time>
      </trkpt>
      <trkpt lat="49.46344" lon="-1.2883">
        <ele>14</ele>
        <time>2022-06-18T13:46:03Z</time>
      </trkpt>
      <trkpt lat="49.46381" lon="-1.28781">
        <ele>11</ele>
        <time>2022-06-18T13:47:09Z</time>
      </trkpt>
      <trkpt lat="49.46461" lon="-1.28658">
        <ele>8</ele>
        <time>2022-06-18T13:49:39Z</time>
      </trkpt>
      <trkpt lat="49.46473" lon="-1.28635">
        <ele>7</ele>
        <time>2022-06-18T13:50:05Z</time>
      </trkpt>
      <trkpt lat="49.46507" lon="-1.28581">
        <ele>6</ele>
        <time>2022-06-18T13:51:10Z</time>
      </trkpt>
      <trkpt lat="49.46514" lon="-1.28565">
        <ele>6</ele>
        <time>2022-06-18T13:51:27Z</time>
      </trkpt>
      <trkpt lat="49.46528" lon="-1.28544">
        <ele>6</ele>
        <time>2022-06-18T13:51:53Z</time>
      </trkpt>
      <trkpt lat="49.46552" lon="-1.28501">
        <ele>6</ele>
        <time>2022-06-18T13:52:42Z</time>
      </trkpt>
      <trkpt lat="49.46569" lon="-1.28476">
        <ele>6</ele>
        <time>2022-06-18T13:53:14Z</time>
      </trkpt>
      <trkpt lat="49.46606" lon="-1.28414">
        <ele>6</ele>
        <time>2022-06-18T13:54:27Z</time>
      </trkpt>
      <trkpt lat="49.46612" lon="-1.28397">
        <ele>6</ele>
        <time>2022-06-18T13:54:43Z</time>
      </trkpt>
      <trkpt lat="49.46646" lon="-1.2841">
        <ele>6</ele>
        <time>2022-06-18T13:55:30Z</time>
      </trkpt>
      <trkpt lat="49.46671" lon="-1.28364">
        <ele>5</ele>
        <time>2022-06-18T13:56:22Z</time>
      </trkpt>
      <trkpt lat="49.46681" lon="-1.28331">
        <ele>4</ele>
        <time>2022-06-18T13:56:54Z</time>
      </trkpt>
      <trkpt lat="49.46703" lon="-1.2828">
        <ele>5</ele>
        <time>2022-06-18T13:57:47Z</time>
      </trkpt>
      <trkpt lat="49.46729" lon="-1.28239">
        <ele>4</ele>
        <time>2022-06-18T13:58:36Z</time>
      </trkpt>
      <trkpt lat="49.46764" lon="-1.28207">
        <ele>4</ele>
        <time>2022-06-18T13:59:31Z</time>
      </trkpt>
      <trkpt lat="49.4677" lon="-1.28192">
        <ele>4</ele>
        <time>2022-06-18T13:59:46Z</time>
      </trkpt>
      <trkpt lat="49.46787" lon="-1.28166">
        <ele>4</ele>
        <time>2022-06-18T14:00:18Z</time>
      </trkpt>
      <trkpt lat="49.46843" lon="-1.28101">
        <ele>1</ele>
        <time>2022-06-18T14:01:52Z</time>
      </trkpt>
      <trkpt lat="49.46879" lon="-1.28048">
        <ele>2</ele>
        <time>2022-06-18T14:02:58Z</time>
      </trkpt>
      <trkpt lat="49.46893" lon="-1.28021">
        <ele>2</ele>
        <time>2022-06-18T14:03:28Z</time>
      </trkpt>
      <trkpt lat="49.46906" lon="-1.27991">
        <ele>3</ele>
        <time>2022-06-18T14:03:59Z</time>
      </trkpt>
      <trkpt lat="49.46919" lon="-1.2795">
        <ele>3</ele>
        <time>2022-06-18T14:04:39Z</time>
      </trkpt>
      <trkpt lat="49.46927" lon="-1.27918">
        <ele>3</ele>
        <time>2022-06-18T14:05:09Z</time>
      </trkpt>
      <trkpt lat="49.46944" lon="-1.27819">
        <ele>2</ele>
        <time>2022-06-18T14:06:37Z</time>
      </trkpt>
      <trkpt lat="49.46953" lon="-1.27795">
        <ele>2</ele>
        <time>2022-06-18T14:07:01Z</time>
      </trkpt>
      <trkpt lat="49.46972" lon="-1.27766">
        <ele>1</ele>
        <time>2022-06-18T14:07:37Z</time>
      </trkpt>
      <trkpt lat="49.46999" lon="-1.2769">
        <ele>1</ele>
        <time>2022-06-18T14:08:52Z</time>
      </trkpt>
      <trkpt lat="49.47024" lon="-1.27635">
        <ele>1</ele>
        <time>2022-06-18T14:09:51Z</time>
      </trkpt>
      <trkpt lat="49.47045" lon="-1.27606">
        <ele>2</ele>
        <time>2022-06-18T14:10:28Z</time>
      </trkpt>
      <trkpt lat="49.47102" lon="-1.2755">
        <ele>2</ele>
        <time>2022-06-18T14:11:58Z</time>
      </trkpt>
      <trkpt lat="49.47119" lon="-1.27531">
        <ele>2</ele>
        <time>2022-06-18T14:12:26Z</time>
      </trkpt>
      <trkpt lat="49.47145" lon="-1.27482">
        <ele>2</ele>
        <time>2022-06-18T14:13:21Z</time>
      </trkpt>
      <trkpt lat="49.47149" lon="-1.27477">
        <ele>2</ele>
        <time>2022-06-18T14:13:28Z</time>
      </trkpt>
      <trkpt lat="49.47164" lon="-1.27462">
        <ele>2</ele>
        <time>2022-06-18T14:13:52Z</time>
      </trkpt>
      <trkpt lat="49.47179" lon="-1.27453">
        <ele>1</ele>
        <time>2022-06-18T14:14:14Z</time>
      </trkpt>
      <trkpt lat="49.47184" lon="-1.27459">
        <ele>1</ele>
        <time>2022-06-18T14:14:22Z</time>
      </trkpt>
      <trkpt lat="49.47182" lon="-1.27458">
        <ele>1</ele>
        <time>2022-06-18T14:14:25Z</time>
      </trkpt>
      <trkpt lat="49.47183" lon="-1.27457">
        <ele>1</ele>
        <time>2022-06-18T14:14:26Z</time>
      </trkpt>
      <trkpt lat="49.47184" lon="-1.27459">
        <ele>1</ele>
        <time>2022-06-18T14:14:29Z</time>
      </trkpt>
      <trkpt lat="49.47183" lon="-1.2746">
        <ele>1</ele>
        <time>2022-06-18T14:14:30Z</time>
      </trkpt>
      <trkpt lat="49.47181" lon="-1.27453">
        <ele>1</ele>
        <time>2022-06-18T14:14:37Z</time>
      </trkpt>
      <trkpt lat="49.4722" lon="-1.27421">
        <ele>1</ele>
        <time>2022-06-18T14:15:36Z</time>
      </trkpt>
      <trkpt lat="49.47245" lon="-1.27396">
        <ele>1</ele>
        <time>2022-06-18T14:16:16Z</time>
      </trkpt>
      <trkpt lat="49.47259" lon="-1.27359">
        <ele>2.4</ele>
        <time>2022-06-18T14:16:53Z</time>
      </trkpt>
      <trkpt lat="49.47284" lon="-1.27303">
        <ele>3</ele>
        <time>2022-06-18T14:17:52Z</time>
      </trkpt>
      <trkpt lat="49.47296" lon="-1.27283">
        <ele>3</ele>
        <time>2022-06-18T14:18:15Z</time>
      </trkpt>
      <trkpt lat="49.47321" lon="-1.27253">
        <ele>2.1</ele>
        <time>2022-06-18T14:18:58Z</time>
      </trkpt>
      <trkpt lat="49.47329" lon="-1.27237">
        <ele>2</ele>
        <time>2022-06-18T14:19:15Z</time>
      </trkpt>
      <trkpt lat="49.47331" lon="-1.27237">
        <ele>2</ele>
        <time>2022-06-18T14:19:18Z</time>
      </trkpt>
      <trkpt lat="49.47352" lon="-1.27114">
        <ele>1</ele>
        <time>2022-06-18T14:21:08Z</time>
      </trkpt>
      <trkpt lat="49.4736" lon="-1.27077">
        <ele>1</ele>
        <time>2022-06-18T14:21:42Z</time>
      </trkpt>
      <trkpt lat="49.47412" lon="-1.26956">
        <ele>2</ele>
        <time>2022-06-18T14:23:48Z</time>
      </trkpt>
      <trkpt lat="49.47425" lon="-1.26919">
        <ele>2</ele>
        <time>2022-06-18T14:24:24Z</time>
      </trkpt>
      <trkpt lat="49.47433" lon="-1.26875">
        <ele>1</ele>
        <time>2022-06-18T14:25:04Z</time>
      </trkpt>
      <trkpt lat="49.47434" lon="-1.26844">
        <ele>1</ele>
        <time>2022-06-18T14:25:31Z</time>
      </trkpt>
      <trkpt lat="49.4744" lon="-1.26809">
        <ele>1</ele>
        <time>2022-06-18T14:26:02Z</time>
      </trkpt>
      <trkpt lat="49.47457" lon="-1.26785">
        <ele>2.5</ele>
        <time>2022-06-18T14:26:33Z</time>
      </trkpt>
      <trkpt lat="49.47479" lon="-1.26775">
        <ele>1</ele>
        <time>2022-06-18T14:27:03Z</time>
      </trkpt>
      <trkpt lat="49.47483" lon="-1.26807">
        <ele>1</ele>
        <time>2022-06-18T14:27:32Z</time>
      </trkpt>
      <trkpt lat="49.47475" lon="-1.26894">
        <ele>1</ele>
        <time>2022-06-18T14:28:48Z</time>
      </trkpt>
      <trkpt lat="49.47478" lon="-1.26922">
        <ele>1</ele>
        <time>2022-06-18T14:29:12Z</time>
      </trkpt>
      <trkpt lat="49.47493" lon="-1.2699">
        <ele>2</ele>
        <time>2022-06-18T14:30:15Z</time>
      </trkpt>
      <trkpt lat="49.47509" lon="-1.2704">
        <ele>1</ele>
        <time>2022-06-18T14:31:03Z</time>
      </trkpt>
      <trkpt lat="49.47514" lon="-1.27084">
        <ele>1</ele>
        <time>2022-06-18T14:31:42Z</time>
      </trkpt>
      <trkpt lat="49.4751" lon="-1.27121">
        <ele>1</ele>
        <time>2022-06-18T14:32:14Z</time>
      </trkpt>
      <trkpt lat="49.47481" lon="-1.27243">
        <ele>1</ele>
        <time>2022-06-18T14:34:07Z</time>
      </trkpt>
      <trkpt lat="49.47475" lon="-1.27292">
        <ele>2</ele>
        <time>2022-06-18T14:34:50Z</time>
      </trkpt>
      <trkpt lat="49.47472" lon="-1.27339">
        <ele>2</ele>
        <time>2022-06-18T14:35:31Z</time>
      </trkpt>
      <trkpt lat="49.47464" lon="-1.27392">
        <ele>2</ele>
        <time>2022-06-18T14:36:18Z</time>
      </trkpt>
      <trkpt lat="49.47453" lon="-1.27432">
        <ele>2</ele>
        <time>2022-06-18T14:36:56Z</time>
      </trkpt>
      <trkpt lat="49.47436" lon="-1.27483">
        <ele>2</ele>
        <time>2022-06-18T14:37:46Z</time>
      </trkpt>
      <trkpt lat="49.47428" lon="-1.27514">
        <ele>2</ele>
        <time>2022-06-18T14:38:15Z</time>
      </trkpt>
      <trkpt lat="49.47409" lon="-1.27555">
        <ele>2</ele>
        <time>2022-06-18T14:38:58Z</time>
      </trkpt>
      <trkpt lat="49.47387" lon="-1.27594">
        <ele>1</ele>
        <time>2022-06-18T14:39:43Z</time>
      </trkpt>
      <trkpt lat="49.47372" lon="-1.27629">
        <ele>1</ele>
        <time>2022-06-18T14:40:19Z</time>
      </trkpt>
      <trkpt lat="49.47365" lon="-1.27667">
        <ele>1</ele>
        <time>2022-06-18T14:40:54Z</time>
      </trkpt>
      <trkpt lat="49.47366" lon="-1.27697">
        <ele>1</ele>
        <time>2022-06-18T14:41:20Z</time>
      </trkpt>
      <trkpt lat="49.47373" lon="-1.27728">
        <ele>2</ele>
        <time>2022-06-18T14:41:48Z</time>
      </trkpt>
      <trkpt lat="49.47372" lon="-1.27743">
        <ele>2</ele>
        <time>2022-06-18T14:42:01Z</time>
      </trkpt>
      <trkpt lat="49.47348" lon="-1.27812">
        <ele>3</ele>
        <time>2022-06-18T14:43:09Z</time>
      </trkpt>
      <trkpt lat="49.47337" lon="-1.27829">
        <ele>3</ele>
        <time>2022-06-18T14:43:30Z</time>
      </trkpt>
      <trkpt lat="49.4733" lon="-1.27866">
        <ele>3</ele>
        <time>2022-06-18T14:44:03Z</time>
      </trkpt>
      <trkpt lat="49.47329" lon="-1.27899">
        <ele>4</ele>
        <time>2022-06-18T14:44:32Z</time>
      </trkpt>
      <trkpt lat="49.47322" lon="-1.27933">
        <ele>3</ele>
        <time>2022-06-18T14:45:03Z</time>
      </trkpt>
      <trkpt lat="49.47316" lon="-1.27975">
        <ele>3</ele>
        <time>2022-06-18T14:45:40Z</time>
      </trkpt>
      <trkpt lat="49.47308" lon="-1.28002">
        <ele>2</ele>
        <time>2022-06-18T14:46:06Z</time>
      </trkpt>
      <trkpt lat="49.47295" lon="-1.28032">
        <ele>2</ele>
        <time>2022-06-18T14:46:37Z</time>
      </trkpt>
      <trkpt lat="49.47294" lon="-1.28039">
        <ele>2</ele>
        <time>2022-06-18T14:46:43Z</time>
      </trkpt>
      <trkpt lat="49.47278" lon="-1.28081">
        <ele>3</ele>
        <time>2022-06-18T14:47:26Z</time>
      </trkpt>
      <trkpt lat="49.47277" lon="-1.28111">
        <ele>3</ele>
        <time>2022-06-18T14:47:52Z</time>
      </trkpt>
      <trkpt lat="49.47281" lon="-1.28134">
        <ele>4</ele>
        <time>2022-06-18T14:48:12Z</time>
      </trkpt>
      <trkpt lat="49.4728" lon="-1.2817">
        <ele>4</ele>
        <time>2022-06-18T14:48:44Z</time>
      </trkpt>
      <trkpt lat="49.47275" lon="-1.28204">
        <ele>4</ele>
        <time>2022-06-18T14:49:14Z</time>
      </trkpt>
      <trkpt lat="49.47227" lon="-1.28305">
        <ele>4</ele>
        <time>2022-06-18T14:51:02Z</time>
      </trkpt>
      <trkpt lat="49.47208" lon="-1.2834">
        <ele>4</ele>
        <time>2022-06-18T14:51:42Z</time>
      </trkpt>
      <trkpt lat="49.47179" lon="-1.2841">
        <ele>4</ele>
        <time>2022-06-18T14:52:54Z</time>
      </trkpt>
      <trkpt lat="49.47158" lon="-1.28445">
        <ele>4</ele>
        <time>2022-06-18T14:53:35Z</time>
      </trkpt>
      <trkpt lat="49.4713" lon="-1.28497">
        <ele>5</ele>
        <time>2022-06-18T14:54:34Z</time>
      </trkpt>
      <trkpt lat="49.47115" lon="-1.28538">
        <ele>7</ele>
        <time>2022-06-18T14:55:14Z</time>
      </trkpt>
      <trkpt lat="49.47111" lon="-1.28568">
        <ele>8</ele>
        <time>2022-06-18T14:55:41Z</time>
      </trkpt>
      <trkpt lat="49.47111" lon="-1.28608">
        <ele>9</ele>
        <time>2022-06-18T14:56:16Z</time>
      </trkpt>
      <trkpt lat="49.47103" lon="-1.2865">
        <ele>11</ele>
        <time>2022-06-18T14:56:54Z</time>
      </trkpt>
      <trkpt lat="49.47072" lon="-1.28711">
        <ele>14</ele>
        <time>2022-06-18T14:58:01Z</time>
      </trkpt>
      <trkpt lat="49.47061" lon="-1.28755">
        <ele>16</ele>
        <time>2022-06-18T14:58:42Z</time>
      </trkpt>
      <trkpt lat="49.47064" lon="-1.2877">
        <ele>16</ele>
        <time>2022-06-18T14:58:55Z</time>
      </trkpt>
      <trkpt lat="49.47072" lon="-1.2878">
        <ele>17</ele>
        <time>2022-06-18T14:59:09Z</time>
      </trkpt>
      <trkpt lat="49.4709" lon="-1.28794">
        <ele>17</ele>
        <time>2022-06-18T14:59:36Z</time>
      </trkpt>
      <trkpt lat="49.47104" lon="-1.2881">
        <ele>17</ele>
        <time>2022-06-18T14:59:59Z</time>
      </trkpt>
      <trkpt lat="49.47108" lon="-1.2881">
        <ele>17</ele>
        <time>2022-06-18T15:00:05Z</time>
      </trkpt>
      <trkpt lat="49.47149" lon="-1.28835">
        <ele>17</ele>
        <time>2022-06-18T15:01:03Z</time>
      </trkpt>
      <trkpt lat="49.47237" lon="-1.28896">
        <ele>18</ele>
        <time>2022-06-18T15:03:12Z</time>
      </trkpt>
      <trkpt lat="49.47269" lon="-1.2894">
        <ele>19</ele>
        <time>2022-06-18T15:04:10Z</time>
      </trkpt>
      <trkpt lat="49.4728" lon="-1.2896">
        <ele>19</ele>
        <time>2022-06-18T15:04:32Z</time>
      </trkpt>
      <trkpt lat="49.47247" lon="-1.29056">
        <ele>23</ele>
        <time>2022-06-18T15:06:06Z</time>
      </trkpt>
    </trkseg>
  </trk>
</gpx>